createdAt,value
2018-10-05T00:00:35.328Z,23
2018-10-05T00:01:39.915Z,23
2018-10-05T00:02:45.408Z,23
2018-10-05T00:03:50.818Z,23
2018-10-05T00:04:56.044Z,23
2018-10-05T00:06:01.530Z,23
2018-10-05T00:07:06.513Z,23
2018-10-05T00:08:11.547Z,23
2018-10-05T00:09:16.728Z,23
2018-10-05T00:10:22.123Z,23
2018-10-05T00:11:27.668Z,23
2018-10-05T00:12:33.362Z,23
2018-10-05T00:13:38.351Z,23
2018-10-05T00:14:43.833Z,23
2018-10-05T00:15:49.241Z,23
2018-10-05T00:16:54.388Z,23
2018-10-05T00:17:59.843Z,23
2018-10-05T00:19:05.554Z,23
2018-10-05T00:20:10.985Z,23
2018-10-05T00:21:16.218Z,23
2018-10-05T00:22:21.709Z,23
2018-10-05T00:23:26.852Z,23
2018-10-05T00:24:32.763Z,23
2018-10-05T00:25:37.720Z,23
2018-10-05T00:26:42.870Z,23
2018-10-05T00:27:48.723Z,23
2018-10-05T00:28:53.351Z,23
2018-10-05T00:29:58.697Z,23
2018-10-05T00:31:04.495Z,23
2018-10-05T00:32:09.943Z,23
2018-10-05T00:33:15.167Z,23
2018-10-05T00:34:21.040Z,23
2018-10-05T00:35:26.184Z,23
2018-10-05T00:36:32.004Z,23
2018-10-05T00:37:37.464Z,23
2018-10-05T00:38:43.027Z,23
2018-10-05T00:39:48.844Z,23
2018-10-05T00:40:54.037Z,23
2018-10-05T00:41:59.180Z,23
2018-10-05T00:43:05.202Z,23
2018-10-05T00:44:10.364Z,23
2018-10-05T00:45:15.792Z,23
2018-10-05T00:46:21.191Z,23
2018-10-05T00:47:26.082Z,23
2018-10-05T00:48:31.466Z,23
2018-10-05T00:49:36.914Z,23
2018-10-05T00:50:42.442Z,23
2018-10-05T00:51:48.910Z,23
2018-10-05T00:52:54.403Z,23
2018-10-05T00:53:59.932Z,23
2018-10-05T00:55:05.251Z,23
2018-10-05T00:56:10.407Z,23
2018-10-05T00:57:15.843Z,23
2018-10-05T00:58:21.359Z,23
2018-10-05T00:59:26.565Z,23
2018-10-05T01:00:32.386Z,23
2018-10-05T01:01:37.370Z,23
2018-10-05T01:02:42.944Z,23
2018-10-05T01:03:48.792Z,23
2018-10-05T01:04:53.950Z,23
2018-10-05T01:05:59.429Z,23
2018-10-05T01:07:04.723Z,23
2018-10-05T01:08:09.982Z,23
2018-10-05T01:09:14.916Z,23
2018-10-05T01:10:20.515Z,23
2018-10-05T01:11:25.499Z,23
2018-10-05T01:12:30.898Z,23
2018-10-05T01:13:35.790Z,23
2018-10-05T01:14:40.990Z,23
2018-10-05T01:15:46.556Z,23
2018-10-05T01:16:52.172Z,23
2018-10-05T01:17:57.077Z,23
2018-10-05T01:19:02.618Z,23
2018-10-05T01:20:07.798Z,23
2018-10-05T01:21:13.269Z,23
2018-10-05T01:22:18.537Z,23
2018-10-05T01:23:24.029Z,23
2018-10-05T01:24:29.215Z,23
2018-10-05T01:25:34.644Z,23
2018-10-05T01:26:39.821Z,23
2018-10-05T01:27:45.417Z,23
2018-10-05T01:28:50.573Z,23
2018-10-05T01:29:55.435Z,23
2018-10-05T01:31:01.388Z,23
2018-10-05T01:32:06.854Z,23
2018-10-05T01:33:12.373Z,23
2018-10-05T01:34:17.897Z,23
2018-10-05T01:35:23.081Z,23
2018-10-05T01:36:28.506Z,23
2018-10-05T01:37:33.437Z,23
2018-10-05T01:38:38.927Z,23
2018-10-05T01:39:44.982Z,23
2018-10-05T01:40:50.219Z,23
2018-10-05T01:41:55.649Z,23
2018-10-05T01:43:01.486Z,23
2018-10-05T01:44:06.667Z,23
2018-10-05T01:45:11.894Z,23
2018-10-05T01:46:17.511Z,23
2018-10-05T01:47:22.698Z,23
2018-10-05T01:48:28.452Z,23
2018-10-05T01:49:33.133Z,23
2018-10-05T01:50:38.567Z,23
2018-10-05T01:51:43.951Z,23
2018-10-05T01:52:49.443Z,23
2018-10-05T01:53:54.310Z,23
2018-10-05T01:55:00.187Z,23
2018-10-05T01:56:04.790Z,23
2018-10-05T01:57:10.151Z,23
2018-10-05T01:58:15.917Z,23
2018-10-05T01:59:21.068Z,23
2018-10-05T02:00:26.036Z,23
2018-10-05T02:01:31.832Z,23
2018-10-05T02:02:37.369Z,23
2018-10-05T02:03:43.578Z,23
2018-10-05T02:04:48.776Z,23
2018-10-05T02:05:54.024Z,23
2018-10-05T02:06:59.147Z,23
2018-10-05T02:08:04.617Z,23
2018-10-05T02:09:10.115Z,23
2018-10-05T02:10:15.522Z,23
2018-10-05T02:11:20.954Z,23
2018-10-05T02:12:26.387Z,23
2018-10-05T02:13:46.313Z,23
2018-10-05T02:14:51.757Z,23
2018-10-05T02:15:57.313Z,23
2018-10-05T02:17:02.766Z,23
2018-10-05T02:18:08.135Z,23
2018-10-05T02:19:13.837Z,23
2018-10-05T02:20:18.786Z,23
2018-10-05T02:21:24.124Z,23
2018-10-05T02:22:29.418Z,23
2018-10-05T02:23:34.572Z,23
2018-10-05T02:24:40.014Z,23
2018-10-05T02:25:45.441Z,23
2018-10-05T02:26:49.753Z,23
2018-10-05T02:27:55.437Z,23
2018-10-05T02:29:00.615Z,23
2018-10-05T02:30:05.835Z,23
2018-10-05T02:31:11.235Z,23
2018-10-05T02:32:16.399Z,23
2018-10-05T02:33:21.899Z,23
2018-10-05T02:34:27.783Z,23
2018-10-05T02:35:33.276Z,23
2018-10-05T02:36:39.099Z,23
2018-10-05T02:37:44.560Z,23
2018-10-05T02:38:49.218Z,23
2018-10-05T02:39:54.669Z,23
2018-10-05T02:40:59.869Z,23
2018-10-05T02:42:04.734Z,23
2018-10-05T02:43:10.132Z,23
2018-10-05T02:44:15.567Z,23
2018-10-05T02:45:20.729Z,23
2018-10-05T02:46:26.265Z,23
2018-10-05T02:47:31.737Z,23
2018-10-05T02:48:37.434Z,23
2018-10-05T02:49:42.623Z,23
2018-10-05T02:50:48.084Z,23
2018-10-05T02:51:53.516Z,23
2018-10-05T02:52:59.003Z,23
2018-10-05T02:54:04.208Z,23
2018-10-05T02:55:10.051Z,23
2018-10-05T02:56:15.505Z,23
2018-10-05T02:57:20.961Z,23
2018-10-05T02:58:26.651Z,23
2018-10-05T02:59:32.006Z,23
2018-10-05T03:00:37.488Z,23
2018-10-05T03:01:42.181Z,23
2018-10-05T03:02:47.089Z,23
2018-10-05T03:03:53.090Z,23
2018-10-05T03:04:58.580Z,23
2018-10-05T03:06:03.727Z,23
2018-10-05T03:07:08.577Z,23
2018-10-05T03:08:14.044Z,23
2018-10-05T03:09:19.216Z,23
2018-10-05T03:10:24.810Z,23
2018-10-05T03:11:30.256Z,23
2018-10-05T03:12:35.768Z,23
2018-10-05T03:13:41.210Z,23
2018-10-05T03:14:46.706Z,23
2018-10-05T03:15:52.173Z,23
2018-10-05T03:16:57.591Z,23
2018-10-05T03:18:02.506Z,23
2018-10-05T03:19:07.061Z,23
2018-10-05T03:20:12.312Z,23
2018-10-05T03:21:17.767Z,23
2018-10-05T03:22:23.547Z,23
2018-10-05T03:23:28.732Z,23
2018-10-05T03:24:34.160Z,23
2018-10-05T03:25:39.312Z,23
2018-10-05T03:26:44.513Z,22.9
2018-10-05T03:27:49.911Z,23
2018-10-05T03:28:55.212Z,22.9
2018-10-05T03:29:59.835Z,22.9
2018-10-05T03:31:05.072Z,22.9
2018-10-05T03:32:10.214Z,22.9
2018-10-05T03:33:15.443Z,22.9
2018-10-05T03:34:21.131Z,22.9
2018-10-05T03:35:26.286Z,22.9
2018-10-05T03:36:31.797Z,22.9
2018-10-05T03:37:36.946Z,22.9
2018-10-05T03:38:41.822Z,22.9
2018-10-05T03:39:46.646Z,22.9
2018-10-05T03:40:51.923Z,22.9
2018-10-05T03:41:57.109Z,22.9
2018-10-05T03:43:02.794Z,22.9
2018-10-05T03:44:08.052Z,22.9
2018-10-05T03:45:12.757Z,22.9
2018-10-05T03:46:17.871Z,22.9
2018-10-05T03:47:23.187Z,22.9
2018-10-05T03:48:28.446Z,22.9
2018-10-05T03:49:33.901Z,22.9
2018-10-05T03:50:39.077Z,22.9
2018-10-05T03:51:44.688Z,22.9
2018-10-05T03:52:50.140Z,22.9
2018-10-05T03:53:55.331Z,22.9
2018-10-05T03:55:01.110Z,22.9
2018-10-05T03:56:06.268Z,22.9
2018-10-05T03:57:11.583Z,22.9
2018-10-05T03:58:17.173Z,22.9
2018-10-05T03:59:22.602Z,22.9
2018-10-05T04:00:27.557Z,22.8
2018-10-05T04:01:32.987Z,22.8
2018-10-05T04:02:37.897Z,22.8
2018-10-05T04:03:43.454Z,22.8
2018-10-05T04:04:48.623Z,22.7
2018-10-05T04:05:53.261Z,22.7
2018-10-05T04:06:58.741Z,22.7
2018-10-05T04:08:03.610Z,22.7
2018-10-05T04:09:09.049Z,22.7
2018-10-05T04:10:14.936Z,22.6
2018-10-05T04:11:19.296Z,22.6
2018-10-05T04:12:24.459Z,22.6
2018-10-05T04:13:30.593Z,22.6
2018-10-05T04:14:36.042Z,22.6
2018-10-05T04:15:41.629Z,22.6
2018-10-05T04:16:47.082Z,22.5
2018-10-05T04:17:52.251Z,22.5
2018-10-05T04:18:58.137Z,22.5
2018-10-05T04:20:03.064Z,22.5
2018-10-05T04:21:08.014Z,22.5
2018-10-05T04:22:13.160Z,22.5
2018-10-05T04:23:18.669Z,22.4
2018-10-05T04:24:23.898Z,22.4
2018-10-05T04:25:29.283Z,22.4
2018-10-05T04:26:34.521Z,22.4
2018-10-05T04:27:40.128Z,22.4
2018-10-05T04:28:44.988Z,22.4
2018-10-05T04:29:50.492Z,22.3
2018-10-05T04:30:56.455Z,22.3
2018-10-05T04:32:01.604Z,22.3
2018-10-05T04:33:07.145Z,22.3
2018-10-05T04:34:12.558Z,22.3
2018-10-05T04:35:16.848Z,22.3
2018-10-05T04:36:22.016Z,22.3
2018-10-05T04:37:27.717Z,22.2
2018-10-05T04:38:32.598Z,22.2
2018-10-05T04:39:38.315Z,22.2
2018-10-05T04:40:43.797Z,22.2
2018-10-05T04:41:48.955Z,22.2
2018-10-05T04:42:54.515Z,22.2
2018-10-05T04:43:59.388Z,22.2
2018-10-05T04:45:04.552Z,22.1
2018-10-05T04:46:09.980Z,22.1
2018-10-05T04:47:15.442Z,22.1
2018-10-05T04:48:20.880Z,22.1
2018-10-05T04:49:26.569Z,22.1
2018-10-05T04:50:31.824Z,22.1
2018-10-05T04:51:36.941Z,22.1
2018-10-05T04:52:42.212Z,22.1
2018-10-05T04:53:47.425Z,22.1
2018-10-05T04:54:52.735Z,22.1
2018-10-05T04:55:57.890Z,22
2018-10-05T04:57:03.075Z,22
2018-10-05T04:58:08.490Z,22
2018-10-05T04:59:13.364Z,22
2018-10-05T05:00:18.802Z,22
2018-10-05T05:01:24.581Z,22
2018-10-05T05:02:29.779Z,22
2018-10-05T05:03:35.040Z,22
2018-10-05T05:04:41.051Z,22
2018-10-05T05:05:45.662Z,22
2018-10-05T05:06:51.390Z,22
2018-10-05T05:07:56.257Z,21.9
2018-10-05T05:09:01.416Z,22
2018-10-05T05:10:06.266Z,21.9
2018-10-05T05:11:11.231Z,21.9
2018-10-05T05:12:16.732Z,21.9
2018-10-05T05:13:23.305Z,21.9
2018-10-05T05:14:28.178Z,21.9
2018-10-05T05:15:33.696Z,21.9
2018-10-05T05:16:38.001Z,21.9
2018-10-05T05:17:42.867Z,21.9
2018-10-05T05:18:48.424Z,21.9
2018-10-05T05:19:53.852Z,21.9
2018-10-05T05:20:58.989Z,21.9
2018-10-05T05:22:04.677Z,21.9
2018-10-05T05:23:09.603Z,21.9
2018-10-05T05:24:15.041Z,21.9
2018-10-05T05:25:20.586Z,21.9
2018-10-05T05:26:26.020Z,21.9
2018-10-05T05:27:31.929Z,21.9
2018-10-05T05:28:37.422Z,21.9
2018-10-05T05:29:42.635Z,21.9
2018-10-05T05:30:48.053Z,21.8
2018-10-05T05:31:52.941Z,21.8
2018-10-05T05:32:58.409Z,21.8
2018-10-05T05:34:03.761Z,21.8
2018-10-05T05:35:09.885Z,21.8
2018-10-05T05:36:15.102Z,21.8
2018-10-05T05:37:20.881Z,21.8
2018-10-05T05:38:26.324Z,21.8
2018-10-05T05:39:32.232Z,21.8
2018-10-05T05:40:37.097Z,21.8
2018-10-05T05:41:42.305Z,21.8
2018-10-05T05:42:47.447Z,21.8
2018-10-05T05:43:52.598Z,21.8
2018-10-05T05:44:58.260Z,21.8
2018-10-05T05:46:03.708Z,21.8
2018-10-05T05:47:08.581Z,21.8
2018-10-05T05:48:13.803Z,21.8
2018-10-05T05:49:18.936Z,21.8
2018-10-05T05:50:24.385Z,21.8
2018-10-05T05:51:29.649Z,21.8
2018-10-05T05:52:35.078Z,21.8
2018-10-05T05:53:39.665Z,21.8
2018-10-05T05:54:45.133Z,21.8
2018-10-05T05:55:50.279Z,21.8
2018-10-05T05:56:55.452Z,21.7
2018-10-05T05:58:01.332Z,21.8
2018-10-05T05:59:06.003Z,21.8
2018-10-05T06:00:11.170Z,21.7
2018-10-05T06:01:16.832Z,21.7
2018-10-05T06:02:22.106Z,21.7
2018-10-05T06:03:27.646Z,21.7
2018-10-05T06:04:33.141Z,21.7
2018-10-05T06:05:38.313Z,21.7
2018-10-05T06:06:44.037Z,21.7
2018-10-05T06:07:48.653Z,21.7
2018-10-05T06:08:53.900Z,21.7
2018-10-05T06:09:59.774Z,21.7
2018-10-05T06:11:04.966Z,21.7
2018-10-05T06:12:10.115Z,21.7
2018-10-05T06:13:15.555Z,21.7
2018-10-05T06:14:20.748Z,21.7
2018-10-05T06:15:26.656Z,21.7
2018-10-05T06:16:32.176Z,21.7
2018-10-05T06:17:38.469Z,21.7
2018-10-05T06:18:43.593Z,21.7
2018-10-05T06:19:49.118Z,21.7
2018-10-05T06:20:53.993Z,21.7
2018-10-05T06:21:59.622Z,21.7
2018-10-05T06:23:04.374Z,21.7
2018-10-05T06:24:09.563Z,21.7
2018-10-05T06:25:14.707Z,21.7
2018-10-05T06:26:20.136Z,21.7
2018-10-05T06:27:26.173Z,21.7
2018-10-05T06:28:32.287Z,21.7
2018-10-05T06:29:37.438Z,21.7
2018-10-05T06:30:42.952Z,21.7
2018-10-05T06:31:49.040Z,21.7
2018-10-05T06:32:53.931Z,21.7
2018-10-05T06:33:59.679Z,21.7
2018-10-05T06:35:04.854Z,21.7
2018-10-05T06:36:09.994Z,21.7
2018-10-05T06:37:15.635Z,21.7
2018-10-05T06:38:21.109Z,21.7
2018-10-05T06:39:27.233Z,21.7
2018-10-05T06:40:32.719Z,21.7
2018-10-05T06:41:37.974Z,21.7
2018-10-05T06:42:43.492Z,21.7
2018-10-05T06:43:48.633Z,21.7
2018-10-05T06:44:53.865Z,21.6
2018-10-05T06:45:59.434Z,21.7
2018-10-05T06:47:04.616Z,21.6
2018-10-05T06:48:09.788Z,21.7
2018-10-05T06:49:15.351Z,21.7
2018-10-05T06:50:20.778Z,21.6
2018-10-05T06:51:26.401Z,21.6
2018-10-05T06:52:31.267Z,21.7
2018-10-05T06:53:36.422Z,21.7
2018-10-05T06:54:41.919Z,21.6
2018-10-05T06:55:47.068Z,21.6
2018-10-05T06:56:52.549Z,21.6
2018-10-05T06:57:58.046Z,21.6
2018-10-05T06:59:03.199Z,21.6
2018-10-05T07:00:08.391Z,21.7
2018-10-05T07:01:14.290Z,21.6
2018-10-05T07:02:19.514Z,21.6
2018-10-05T07:04:44.659Z,21.6
2018-10-05T07:05:50.088Z,21.6
2018-10-05T07:06:55.403Z,21.6
2018-10-05T07:08:00.904Z,21.6
2018-10-05T07:09:06.650Z,21.6
2018-10-05T07:10:12.365Z,21.6
2018-10-05T07:11:17.942Z,21.6
2018-10-05T07:12:22.918Z,21.6
2018-10-05T07:13:28.761Z,21.6
2018-10-05T07:14:33.925Z,21.6
2018-10-05T07:15:39.359Z,21.6
2018-10-05T07:16:44.569Z,21.6
2018-10-05T07:17:50.486Z,21.6
2018-10-05T07:18:56.050Z,21.6
2018-10-05T07:20:01.485Z,21.6
2018-10-05T07:21:07.020Z,21.6
2018-10-05T07:22:12.182Z,21.6
2018-10-05T07:23:17.366Z,21.6
2018-10-05T07:24:22.104Z,21.6
2018-10-05T07:25:27.785Z,21.6
2018-10-05T07:26:33.271Z,21.6
2018-10-05T07:27:38.293Z,21.6
2018-10-05T07:28:43.858Z,21.6
2018-10-05T07:29:49.767Z,21.6
2018-10-05T07:30:54.210Z,21.6
2018-10-05T07:31:59.637Z,21.6
2018-10-05T07:33:05.051Z,21.6
2018-10-05T07:34:10.179Z,21.6
2018-10-05T07:35:15.360Z,21.6
2018-10-05T07:36:20.223Z,21.6
2018-10-05T07:37:25.721Z,21.6
2018-10-05T07:38:31.213Z,21.6
2018-10-05T07:39:36.698Z,21.6
2018-10-05T07:40:42.226Z,21.6
2018-10-05T07:41:47.691Z,21.6
2018-10-05T07:42:52.867Z,21.6
2018-10-05T07:43:57.979Z,21.6
2018-10-05T07:45:03.465Z,21.6
2018-10-05T07:46:08.585Z,21.6
2018-10-05T07:47:13.474Z,21.6
2018-10-05T07:48:18.615Z,21.6
2018-10-05T07:49:24.055Z,21.6
2018-10-05T07:50:28.415Z,21.6
2018-10-05T07:51:33.256Z,21.6
2018-10-05T07:52:38.339Z,21.6
2018-10-05T07:53:43.524Z,21.6
2018-10-05T07:54:49.133Z,21.6
2018-10-05T07:55:54.610Z,21.6
2018-10-05T07:56:59.684Z,21.6
2018-10-05T07:58:05.461Z,21.6
2018-10-05T07:59:10.852Z,21.6
2018-10-05T08:00:16.003Z,21.6
2018-10-05T08:01:21.163Z,21.6
2018-10-05T08:02:26.305Z,21.6
2018-10-05T08:03:31.244Z,21.6
2018-10-05T08:04:36.670Z,21.6
2018-10-05T08:05:41.889Z,21.6
2018-10-05T08:06:47.326Z,21.6
2018-10-05T08:07:51.917Z,21.6
2018-10-05T08:08:57.093Z,21.6
2018-10-05T08:10:02.493Z,21.6
2018-10-05T08:11:07.363Z,21.6
2018-10-05T08:12:12.572Z,21.6
2018-10-05T08:13:18.419Z,21.6
2018-10-05T08:14:23.851Z,21.6
2018-10-05T08:15:29.216Z,21.6
2018-10-05T08:16:34.406Z,21.6
2018-10-05T08:17:39.275Z,21.6
2018-10-05T08:18:45.123Z,21.6
2018-10-05T08:19:50.342Z,21.6
2018-10-05T08:20:55.579Z,21.6
2018-10-05T08:22:01.077Z,21.6
2018-10-05T08:23:06.505Z,21.6
2018-10-05T08:24:11.647Z,21.6
2018-10-05T08:25:16.763Z,21.6
2018-10-05T08:26:21.910Z,21.6
2018-10-05T08:27:27.324Z,21.6
2018-10-05T08:28:31.951Z,21.6
2018-10-05T08:29:37.383Z,21.6
2018-10-05T08:30:42.841Z,21.6
2018-10-05T08:31:48.485Z,21.6
2018-10-05T08:32:53.417Z,21.6
2018-10-05T08:33:58.729Z,21.6
2018-10-05T08:35:04.415Z,21.6
2018-10-05T08:36:09.612Z,21.6
2018-10-05T08:37:14.844Z,21.6
2018-10-05T08:38:19.449Z,21.6
2018-10-05T08:40:45.028Z,21.6
2018-10-05T08:41:50.357Z,21.6
2018-10-05T08:42:55.679Z,21.6
2018-10-05T08:44:00.888Z,21.6
2018-10-05T08:45:06.324Z,21.6
2018-10-05T08:46:11.940Z,21.6
2018-10-05T08:47:17.136Z,21.6
2018-10-05T08:48:22.942Z,21.6
2018-10-05T08:49:43.123Z,21.6
2018-10-05T08:50:48.411Z,21.6
2018-10-05T08:51:54.019Z,21.6
2018-10-05T08:53:00.282Z,21.6
2018-10-05T08:54:05.676Z,21.6
2018-10-05T08:55:11.317Z,21.6
2018-10-05T08:56:16.580Z,21.6
2018-10-05T08:57:21.720Z,21.6
2018-10-05T08:58:27.029Z,21.6
2018-10-05T08:59:32.183Z,21.6
2018-10-05T09:00:37.801Z,21.6
2018-10-05T09:01:42.791Z,21.6
2018-10-05T09:02:47.941Z,21.6
2018-10-05T09:03:53.686Z,21.6
2018-10-05T09:04:59.141Z,21.6
2018-10-05T09:06:04.574Z,21.6
2018-10-05T09:07:09.972Z,21.6
2018-10-05T09:08:15.466Z,21.7
2018-10-05T09:09:20.898Z,21.7
2018-10-05T09:10:26.512Z,21.7
2018-10-05T09:11:31.663Z,21.7
2018-10-05T09:12:36.270Z,21.7
2018-10-05T09:13:41.435Z,21.7
2018-10-05T09:14:46.916Z,21.7
2018-10-05T09:15:52.417Z,21.7
2018-10-05T09:16:57.578Z,21.7
2018-10-05T09:18:03.042Z,21.7
2018-10-05T09:19:09.153Z,21.7
2018-10-05T09:20:14.640Z,21.7
2018-10-05T09:21:20.070Z,21.7
2018-10-05T09:22:39.956Z,21.7
2018-10-05T09:23:45.403Z,21.7
2018-10-05T09:24:50.857Z,21.7
2018-10-05T09:25:56.036Z,21.7
2018-10-05T09:27:01.501Z,21.7
2018-10-05T09:28:06.717Z,21.7
2018-10-05T09:29:11.876Z,21.7
2018-10-05T09:30:17.535Z,21.7
2018-10-05T09:31:22.464Z,21.7
2018-10-05T09:32:27.911Z,21.7
2018-10-05T09:33:33.304Z,21.7
2018-10-05T09:34:38.610Z,21.7
2018-10-05T09:35:43.288Z,21.7
2018-10-05T09:36:48.966Z,21.7
2018-10-05T09:37:53.750Z,21.7
2018-10-05T09:38:59.613Z,21.7
2018-10-05T09:40:05.006Z,21.7
2018-10-05T09:41:09.630Z,21.7
2018-10-05T09:42:14.270Z,21.7
2018-10-05T09:43:20.077Z,21.7
2018-10-05T09:44:24.938Z,21.7
2018-10-05T09:45:30.754Z,21.7
2018-10-05T09:46:36.133Z,21.7
2018-10-05T09:47:41.368Z,21.7
2018-10-05T09:48:47.070Z,21.7
2018-10-05T09:49:52.499Z,21.7
2018-10-05T09:50:57.092Z,21.7
2018-10-05T09:52:03.064Z,21.7
2018-10-05T09:53:08.175Z,21.7
2018-10-05T09:54:13.367Z,21.7
2018-10-05T09:55:19.299Z,21.7
2018-10-05T09:56:24.812Z,21.7
2018-10-05T09:57:30.360Z,21.7
2018-10-05T09:58:35.522Z,21.8
2018-10-05T09:59:40.995Z,21.7
2018-10-05T10:00:47.423Z,21.8
2018-10-05T10:01:53.062Z,21.7
2018-10-05T10:02:58.272Z,21.7
2018-10-05T10:04:03.690Z,21.7
2018-10-05T10:05:08.889Z,21.7
2018-10-05T10:06:14.321Z,21.7
2018-10-05T10:07:20.173Z,21.7
2018-10-05T10:08:24.813Z,21.7
2018-10-05T10:09:31.085Z,21.7
2018-10-05T10:10:35.993Z,21.8
2018-10-05T10:11:41.200Z,21.7
2018-10-05T10:12:46.399Z,21.8
2018-10-05T10:13:51.914Z,21.8
2018-10-05T10:14:57.030Z,21.7
2018-10-05T10:16:02.295Z,21.8
2018-10-05T10:17:07.184Z,21.8
2018-10-05T10:18:12.628Z,21.8
2018-10-05T10:19:18.132Z,21.8
2018-10-05T10:20:23.365Z,21.8
2018-10-05T10:21:28.681Z,21.8
2018-10-05T10:22:33.829Z,21.8
2018-10-05T10:23:39.199Z,21.8
2018-10-05T10:24:44.748Z,21.8
2018-10-05T10:25:49.983Z,21.8
2018-10-05T10:26:55.135Z,21.8
2018-10-05T10:28:00.800Z,21.8
2018-10-05T10:29:06.647Z,21.8
2018-10-05T10:30:12.274Z,21.8
2018-10-05T10:31:17.460Z,21.8
2018-10-05T10:32:22.881Z,21.8
2018-10-05T10:33:28.772Z,21.8
2018-10-05T10:34:33.901Z,21.8
2018-10-05T10:35:40.068Z,21.8
2018-10-05T10:36:45.641Z,21.8
2018-10-05T10:37:50.523Z,21.8
2018-10-05T10:38:56.084Z,21.8
2018-10-05T10:40:01.337Z,21.8
2018-10-05T10:41:06.725Z,21.8
2018-10-05T10:42:11.605Z,21.8
2018-10-05T10:43:16.454Z,21.8
2018-10-05T10:44:22.285Z,21.8
2018-10-05T10:45:27.477Z,21.8
2018-10-05T10:46:33.113Z,21.8
2018-10-05T10:47:38.335Z,21.8
2018-10-05T10:48:44.099Z,21.8
2018-10-05T10:49:49.284Z,21.8
2018-10-05T10:50:54.719Z,21.8
2018-10-05T10:52:00.329Z,21.8
2018-10-05T10:53:05.252Z,21.8
2018-10-05T10:54:10.775Z,21.8
2018-10-05T10:55:17.146Z,21.8
2018-10-05T10:56:22.469Z,21.8
2018-10-05T10:57:28.730Z,21.8
2018-10-05T10:58:33.895Z,21.8
2018-10-05T10:59:38.499Z,21.8
2018-10-05T11:00:44.011Z,21.8
2018-10-05T11:01:50.092Z,21.8
2018-10-05T11:02:55.260Z,21.8
2018-10-05T11:04:00.797Z,21.8
2018-10-05T11:05:06.772Z,21.8
2018-10-05T11:06:11.676Z,21.8
2018-10-05T11:07:17.435Z,21.8
2018-10-05T11:08:22.674Z,21.8
2018-10-05T11:09:28.210Z,21.8
2018-10-05T11:10:33.645Z,21.8
2018-10-05T11:11:38.879Z,21.8
2018-10-05T11:12:44.104Z,21.8
2018-10-05T11:13:49.578Z,21.8
2018-10-05T11:14:54.455Z,21.8
2018-10-05T11:15:59.860Z,21.8
2018-10-05T11:17:04.941Z,21.8
2018-10-05T11:18:10.651Z,21.8
2018-10-05T11:19:16.051Z,21.8
2018-10-05T11:20:21.129Z,21.8
2018-10-05T11:21:26.908Z,21.8
2018-10-05T11:22:32.348Z,21.8
2018-10-05T11:23:37.829Z,21.8
2018-10-05T11:24:43.647Z,21.8
2018-10-05T11:25:49.075Z,21.8
2018-10-05T11:26:54.585Z,21.8
2018-10-05T11:27:59.987Z,21.8
2018-10-05T11:29:05.070Z,21.8
2018-10-05T11:30:10.224Z,21.8
2018-10-05T11:31:16.012Z,21.8
2018-10-05T11:32:21.205Z,21.8
2018-10-05T11:33:27.063Z,21.8
2018-10-05T11:34:32.292Z,21.8
2018-10-05T11:35:37.445Z,21.8
2018-10-05T11:36:43.042Z,21.8
2018-10-05T11:37:48.286Z,21.8
2018-10-05T11:38:53.163Z,21.8
2018-10-05T11:39:58.968Z,21.8
2018-10-05T11:41:04.194Z,21.8
2018-10-05T11:42:09.344Z,21.8
2018-10-05T11:43:14.829Z,21.8
2018-10-05T11:44:20.328Z,21.8
2018-10-05T11:45:24.907Z,21.8
2018-10-05T11:46:30.944Z,21.8
2018-10-05T11:47:36.837Z,21.8
2018-10-05T11:48:41.849Z,21.8
2018-10-05T11:49:47.028Z,21.8
2018-10-05T11:50:51.968Z,21.8
2018-10-05T11:51:57.619Z,21.8
2018-10-05T11:53:02.838Z,21.8
2018-10-05T11:54:08.329Z,21.8
2018-10-05T11:55:13.491Z,21.8
2018-10-05T11:56:18.711Z,21.8
2018-10-05T11:57:24.214Z,21.8
2018-10-05T11:58:44.717Z,21.8
2018-10-05T11:59:50.259Z,21.8
2018-10-05T12:00:56.660Z,21.8
2018-10-05T12:02:01.526Z,21.8
2018-10-05T12:03:06.428Z,21.8
2018-10-05T12:04:11.323Z,21.8
2018-10-05T12:05:17.045Z,21.8
2018-10-05T12:06:22.686Z,21.8
2018-10-05T12:07:42.909Z,21.8
2018-10-05T12:08:48.443Z,21.8
2018-10-05T12:09:53.948Z,21.8
2018-10-05T12:10:59.119Z,21.8
2018-10-05T12:12:03.732Z,21.8
2018-10-05T12:13:08.567Z,21.8
2018-10-05T12:14:14.011Z,21.8
2018-10-05T12:15:18.622Z,21.8
2018-10-05T12:16:24.173Z,21.8
2018-10-05T12:17:29.326Z,21.8
2018-10-05T12:18:34.307Z,21.8
2018-10-05T12:19:39.736Z,21.8
2018-10-05T12:20:45.322Z,21.8
2018-10-05T12:21:51.304Z,21.8
2018-10-05T12:22:56.750Z,21.8
2018-10-05T12:24:02.196Z,21.8
2018-10-05T12:25:07.924Z,21.8
2018-10-05T12:26:13.414Z,21.8
2018-10-05T12:27:18.617Z,21.8
2018-10-05T12:28:23.771Z,21.8
2018-10-05T12:29:29.026Z,21.8
2018-10-05T12:30:34.756Z,21.8
2018-10-05T12:31:40.267Z,21.8
2018-10-05T12:32:45.698Z,21.8
2018-10-05T12:33:51.099Z,21.8
2018-10-05T12:34:56.530Z,21.8
2018-10-05T12:36:01.878Z,21.8
2018-10-05T12:37:07.934Z,21.8
2018-10-05T12:38:12.811Z,21.8
2018-10-05T12:39:17.389Z,21.8
2018-10-05T12:40:22.227Z,21.8
2018-10-05T12:41:27.657Z,21.8
2018-10-05T12:42:33.122Z,21.8
2018-10-05T12:43:37.983Z,21.8
2018-10-05T12:44:42.955Z,21.8
2018-10-05T12:45:48.666Z,21.8
2018-10-05T12:46:53.543Z,21.8
2018-10-05T12:47:58.404Z,21.8
2018-10-05T12:49:03.920Z,21.8
2018-10-05T12:50:08.946Z,21.8
2018-10-05T12:51:14.017Z,21.8
2018-10-05T12:52:19.276Z,21.8
2018-10-05T12:53:24.825Z,21.8
2018-10-05T12:54:30.332Z,21.8
2018-10-05T12:55:35.292Z,21.8
2018-10-05T12:56:40.531Z,21.8
2018-10-05T12:57:45.516Z,21.8
2018-10-05T12:58:50.966Z,21.8
2018-10-05T12:59:56.191Z,21.8
2018-10-05T13:01:01.444Z,21.8
2018-10-05T13:02:06.701Z,21.8
2018-10-05T13:03:12.178Z,21.8
2018-10-05T13:04:17.580Z,21.8
2018-10-05T13:05:23.026Z,21.8
2018-10-05T13:06:28.764Z,21.8
2018-10-05T13:07:34.193Z,21.8
2018-10-05T13:08:39.577Z,21.8
2018-10-05T13:09:45.071Z,21.8
2018-10-05T13:10:50.278Z,21.8
2018-10-05T13:11:55.468Z,21.8
2018-10-05T13:13:01.135Z,21.8
2018-10-05T13:14:06.031Z,21.8
2018-10-05T13:15:11.277Z,21.8
2018-10-05T13:16:16.692Z,21.8
2018-10-05T13:17:22.122Z,21.8
2018-10-05T13:18:27.693Z,21.8
2018-10-05T13:19:32.592Z,21.8
2018-10-05T13:20:38.023Z,21.8
2018-10-05T13:21:43.726Z,21.8
2018-10-05T13:22:49.297Z,21.8
2018-10-05T13:23:54.258Z,21.8
2018-10-05T13:25:00.035Z,21.8
2018-10-05T13:26:05.250Z,21.8
2018-10-05T13:27:10.842Z,21.8
2018-10-05T13:28:16.523Z,21.8
2018-10-05T13:29:21.797Z,21.8
2018-10-05T13:30:27.546Z,21.8
2018-10-05T13:31:33.011Z,21.8
2018-10-05T13:32:38.237Z,21.8
2018-10-05T13:33:43.640Z,21.8
2018-10-05T13:34:49.077Z,21.8
2018-10-05T13:35:54.053Z,21.8
2018-10-05T13:36:59.831Z,21.8
2018-10-05T13:38:04.411Z,21.8
2018-10-05T13:39:09.880Z,21.8
2018-10-05T13:40:15.809Z,21.8
2018-10-05T13:41:20.432Z,21.8
2018-10-05T13:42:26.495Z,21.8
2018-10-05T13:43:31.607Z,21.8
2018-10-05T13:44:37.097Z,21.8
2018-10-05T13:45:42.919Z,21.8
2018-10-05T13:46:48.218Z,21.8
2018-10-05T13:47:52.604Z,21.8
2018-10-05T13:48:58.071Z,21.8
2018-10-05T13:50:03.504Z,21.8
2018-10-05T13:51:08.648Z,21.8
2018-10-05T13:52:13.762Z,21.8
2018-10-05T13:53:18.905Z,21.8
2018-10-05T13:54:24.058Z,21.8
2018-10-05T13:55:43.986Z,21.8
2018-10-05T13:56:49.431Z,21.8
2018-10-05T13:57:55.281Z,21.8
2018-10-05T13:59:00.144Z,21.8
2018-10-05T14:00:04.840Z,21.8
2018-10-05T14:01:10.058Z,21.8
2018-10-05T14:02:15.493Z,21.8
2018-10-05T14:03:20.507Z,21.8
2018-10-05T14:04:26.333Z,21.8
2018-10-05T14:05:31.818Z,21.8
2018-10-05T14:06:37.209Z,21.8
2018-10-05T14:07:41.834Z,21.8
2018-10-05T14:08:47.009Z,21.8
2018-10-05T14:09:52.790Z,21.8
2018-10-05T14:10:57.398Z,21.8
2018-10-05T14:12:02.824Z,21.8
2018-10-05T14:13:08.549Z,21.8
2018-10-05T14:14:14.029Z,21.8
2018-10-05T14:15:18.658Z,21.8
2018-10-05T14:16:23.828Z,21.8
2018-10-05T14:17:29.068Z,21.8
2018-10-05T14:18:34.463Z,21.8
2018-10-05T14:19:39.371Z,21.8
2018-10-05T14:20:44.861Z,21.9
2018-10-05T14:21:50.393Z,21.8
2018-10-05T14:22:56.122Z,21.8
2018-10-05T14:24:01.578Z,21.8
2018-10-05T14:25:06.817Z,21.8
2018-10-05T14:26:12.377Z,21.8
2018-10-05T14:27:17.518Z,21.9
2018-10-05T14:28:22.702Z,21.8
2018-10-05T14:29:27.706Z,21.9
2018-10-05T14:30:33.400Z,21.9
2018-10-05T14:31:38.844Z,21.9
2018-10-05T14:32:44.169Z,21.9
2018-10-05T14:33:49.141Z,21.9
2018-10-05T14:34:54.638Z,21.9
2018-10-05T14:36:00.069Z,21.9
2018-10-05T14:37:06.181Z,21.9
2018-10-05T14:38:11.358Z,21.9
2018-10-05T14:39:16.500Z,21.9
2018-10-05T14:40:22.101Z,21.9
2018-10-05T14:41:27.644Z,21.9
2018-10-05T14:42:33.590Z,21.9
2018-10-05T14:43:38.536Z,21.9
2018-10-05T14:44:43.481Z,21.9
2018-10-05T14:45:49.056Z,21.9
2018-10-05T14:46:54.463Z,21.9
2018-10-05T14:47:58.759Z,21.9